Aérodrome :
LOGIN :

S'inscrire | Disclaimer

   EN    FR    IT 

 










Légende :    VFR   VFR Marginal   IFR   IFR Intensif   IFR Très Intensif
Visi : 
Plafond : 
>= 8 km
>= 3000ft
5 à 8 km
1000 à 3000 ft
1500m à 5 km
500 à 1000 ft
800 à 1500m
200 à 500 ft
< 800m
< 200 ft
Symboles :   Orages  Brouillard  Fortes neiges  Fortes précipitations  Vent > 20 kt
SIGMETs :   Divers  Orages  Givrage  Turbulence  Onde Orograph.  Cendres Volcan.






- Altitude de l'aérodrome : 1276 ft
- Code IATA : STR


EDDS - Stuttgart

DERNIER METAR :
  • 031950Z 28011KT 9999 FEW011 FEW040CB 19/11 Q1002 NOSIG

METARs EXPIRÉS :
  • 031920Z 25008KT 220V280 9999 -SHRA FEW040CB 20/10 Q1002 TEMPO SHRA
  • 031850Z 09002KT 9999 FEW040CB 20/11 Q1002 NOSIG
  • 031820Z VRB02KT CAVOK 21/09 Q1002 NOSIG
  • 031750Z VRB02KT CAVOK 22/08 Q1002 NOSIG
  • 031720Z VRB02KT CAVOK 23/10 Q1002 NOSIG

TAF TAF EDDS
Valide du 03 à 18h jusqu'au 04 à 18h UTC


031700Z 0318/0418 26005KT CAVOK
BECMG 0318/0321 VRB03KT
PROB40
TEMPO 0321/0409 RA
PROB30
TEMPO 0321/0409 TSRA BKN060CB
BECMG 0406/0409 20006KT
PROB30
TEMPO 0409/0418 24015G25KT 4000 TSRA BKN020CB



MET'MAP, la Météo Aéronautique d'un coup d'oeil ! - Copyright ORBIFLY Décembre 2007 - Disclaimer

ORBIFLY MET'MAP TEAM :

Programmation & Développement : Alexandra Zaïnal
Sur une idée originale de : Baudouin d'Aumeries
Assistance à la programmation : Marc-Olivier Méhu
Soutien technique & logistique : Manuel Goepfert

Contact : metmap@orbifly.com




SOURCES & CREDITS :

   NOAA